WetterOnline ( http://www.wetteronline.de )

Wetter aktuell Donau-Ries

Aktuelles Wetter: Harburg (503m)

6-stündlich | Neueste Meldungen
Ortszeit Temperatur Wetter
Mo, 18.03. 19:00 4.6° C wolkig
Mo, 18.03. 13:00 5.5° C wolkig
Mo, 18.03. 7:00 1.5° C bedeckt
Mo, 18.03. 1:00 2.8° C bewölkt
So, 17.03. 19:00 3.9° C bewölkt
So, 17.03. 13:00 15.3° C bedeckt
So, 17.03. 7:00 6.9° C leicht bewölkt
So, 17.03. 1:00 7.1° C wolkig
Ortszeit Temperatur Wetter
Mo, 18.03. 20:00 3.1° C leicht bewölkt
Mo, 18.03. 19:50 3.1° C leicht bewölkt
Mo, 18.03. 19:40 3.2° C leicht bewölkt
Mo, 18.03. 19:30 4.0° C wolkig
Mo, 18.03. 19:20 4.0° C wolkig
Mo, 18.03. 19:10 4.1° C leicht bewölkt
Mo, 18.03. 19:00 4.6° C wolkig
Mo, 18.03. 18:30 5.6° C bewölkt
Mo, 18.03. 18:00 5.8° C wolkenlos
Mo, 18.03. 17:30 6.2° C fast wolkenlos
Mo, 18.03. 17:00 6.4° C bewölkt
Ortszeit Relative Feuchte Sichtweite
Mo, 18.03. 19:00 61% 70 km
Mo, 18.03. 13:00 56% 60 km
Mo, 18.03. 7:00 87% 30 km
Mo, 18.03. 1:00 78% 70 km
So, 17.03. 19:00 81% 70 km
So, 17.03. 13:00 38% 55 km
So, 17.03. 7:00 62% 70 km
So, 17.03. 1:00 72% 70 km
Ortszeit Relative Feuchte Sichtweite
Mo, 18.03. 20:00 74% 70 km
Mo, 18.03. 19:50 74% -
Mo, 18.03. 19:40 73% -
Mo, 18.03. 19:30 66% 70 km
Mo, 18.03. 19:20 66% -
Mo, 18.03. 19:10 63% -
Mo, 18.03. 19:00 61% 70 km
Mo, 18.03. 18:30 57% 70 km
Mo, 18.03. 18:00 57% 70 km
Mo, 18.03. 17:30 55% -
Mo, 18.03. 17:00 60% -
Ortszeit Niederschlagsmenge Niederschlagsart
Mo, 18.03. 19:00 0.1 l/m2 in 12 Std. -
Mo, 18.03. 13:00 0.1 l/m2 in 6 Std. Schneeregen
Mo, 18.03. 7:00 0.3 l/m2 in 12 Std. Schnee, Sprühregen
Mo, 18.03. 1:00 0.3 l/m2 in 6 Std. Regen
So, 17.03. 19:00 0.2 l/m2 in 12 Std. Schneeregen
So, 17.03. 13:00 0.0 l/m2 in 6 Std. -
So, 17.03. 7:00 0.0 l/m2 in 12 Std. -
So, 17.03. 1:00 0.0 l/m2 in 6 Std. -
Ortszeit Niederschlagsmenge Niederschlagsart
Mo, 18.03. 20:00 0.0 l/m2 in 1 Std. -
Mo, 18.03. 19:50 keine Meldung -
Mo, 18.03. 19:40 keine Meldung -
Mo, 18.03. 19:30 0.0 l/m2 in 1 Std. -
Mo, 18.03. 19:20 keine Meldung -
Mo, 18.03. 19:10 keine Meldung -
Mo, 18.03. 19:00 0.0 l/m2 in 1 Std. -
Mo, 18.03. 18:30 0.0 l/m2 in 1 Std. -
Mo, 18.03. 18:00 0.0 l/m2 in 1 Std. -
Mo, 18.03. 17:30 0.0 l/m2 in 1 Std. -
Mo, 18.03. 17:00 0.1 l/m2 in 1 Std. -
Ortszeit Stärke Spitze Richtung
km/h Bft. km/h Grad Sektor
Mo, 18.03. 19:00 13 3 39 270° W
Mo, 18.03. 13:00 25 4 50 310° NW
Mo, 18.03. 7:00 19 3 35 230° SW
Mo, 18.03. 1:00 18 3 40 280° W
So, 17.03. 19:00 18 3 79 290° W
So, 17.03. 13:00 20 4 50 210° SW
So, 17.03. 7:00 22 4 39 190° S
So, 17.03. 1:00 7 2 17 170° S
Ortszeit Stärke Spitze Richtung
km/h Bft. km/h Grad Sektor
Mo, 18.03. 20:00 15 3 22 290° W
Mo, 18.03. 19:50 15 3 - 290° W
Mo, 18.03. 19:40 14 3 - 290° W
Mo, 18.03. 19:30 13 3 22 270° W
Mo, 18.03. 19:20 13 3 - 270° W
Mo, 18.03. 19:10 13 3 - 270° W
Mo, 18.03. 19:00 13 3 20 270° W
Mo, 18.03. 18:30 13 3 20 310° NW
Mo, 18.03. 18:00 15 3 24 300° NW
Mo, 18.03. 17:30 13 3 24 280° W
Mo, 18.03. 17:00 17 3 35 330° NW
Ortszeit Untergrenze Bedeckung Gattung
total tief tief mittel hoch
Mo, 18.03. 19:00 1290 m 5/8 5/8 - - -
Mo, 18.03. 13:00 1020 m 6/8 6/8 - - -
Mo, 18.03. 7:00 870 m 8/8 8/8 - - -
Mo, 18.03. 1:00 780 m 7/8 6/8 - - -
So, 17.03. 19:00 1200 m 7/8 7/8 - - -
So, 17.03. 13:00 3000 m 8/8 8/8 - - -
So, 17.03. 7:00 9000 m 5/8 0/8 - - -
So, 17.03. 1:00 8400 m 8/8 0/8 - - -
Ortszeit Bedeckungsgrad in Achtel und Wolkenuntergrenze
Mo, 18.03. 20:00 1(1290m) 4(1800m)
Mo, 18.03. 19:50 1(1290m) 4(1800m)
Mo, 18.03. 19:40 2(1260m) 4(1500m)
Mo, 18.03. 19:30 2(1230m) 5(1500m)
Mo, 18.03. 19:20 2(1230m) 5(1500m)
Mo, 18.03. 19:10 3(1500m)
Mo, 18.03. 19:00 2(1290m) 5(1500m)
Mo, 18.03. 18:30 6(1320m) 7(1500m)
Mo, 18.03. 18:00 1(1470m)
Mo, 18.03. 17:30 1(2100m)
Mo, 18.03. 17:00 1(1440m) 4(1800m) 7(2100m)
Ortszeit Luftdruck NN (hPa) Tendenz (hPa in 3 Std.)
Mo, 18.03. 19:00 1022 + 1,9
Mo, 18.03. 13:00 1020 + 1,0
Mo, 18.03. 7:00 1018 + 0,8
Mo, 18.03. 1:00 1017 + 1,8
So, 17.03. 19:00 1010 + 4,0
So, 17.03. 13:00 1003 - 1,4
So, 17.03. 7:00 1007 - 1,0
So, 17.03. 1:00 1009 - 1,3
Ortszeit Luftdruck NN (hPa) Tendenz (hPa in 3 Std.)
Mo, 18.03. 20:00 1023 + 2,4
Mo, 18.03. 19:50 1023 keine Meldung
Mo, 18.03. 19:40 1023 keine Meldung
Mo, 18.03. 19:30 1023 + 2,3
Mo, 18.03. 19:20 1023 keine Meldung
Mo, 18.03. 19:10 1023 keine Meldung
Mo, 18.03. 19:00 1022 + 1,9
Mo, 18.03. 18:30 1021 + 1,7
Mo, 18.03. 18:00 1021 + 1,2
Mo, 18.03. 17:30 1020 + 0,9
Mo, 18.03. 17:00 1020 + 0,6
Ortszeit Schneehöhe (cm)
Mo, 18.03. 19:00 0
Mo, 18.03. 13:00 0
Mo, 18.03. 7:00 0
Mo, 18.03. 1:00 0
So, 17.03. 19:00 0
So, 17.03. 13:00 0
So, 17.03. 7:00 0
So, 17.03. 1:00 0
Ortszeit Schneehöhe (cm)
Mo, 18.03. 20:00 0
Mo, 18.03. 19:50 0
Mo, 18.03. 19:40 0
Mo, 18.03. 19:30 0
Mo, 18.03. 19:20 0
Mo, 18.03. 19:10 0
Mo, 18.03. 19:00 0
Mo, 18.03. 18:30 0
Mo, 18.03. 18:00 0
Mo, 18.03. 17:30 0
Mo, 18.03. 17:00 0
Link zu dieser Seite / Seite empfehlen

Das Wetter in ...